sensor_id;sensor_type;location;lat;lon;timestamp;pressure;altitude;pressure_sealevel;temperature;humidity
40073;BME280;25774;52.256;9.356;2022-10-16T00:01:22;99930.63;;;13.43;100.00
40073;BME280;25774;52.256;9.356;2022-10-16T00:03:49;99938.97;;;13.49;100.00
40073;BME280;25774;52.256;9.356;2022-10-16T00:06:15;99945.53;;;13.57;100.00
40073;BME280;25774;52.256;9.356;2022-10-16T00:08:42;99927.25;;;12.93;100.00
40073;BME280;25774;52.256;9.356;2022-10-16T00:11:17;99957.44;;;13.51;100.00
40073;BME280;25774;52.256;9.356;2022-10-16T00:13:45;99954.28;;;13.81;100.00
40073;BME280;25774;52.256;9.356;2022-10-16T00:16:11;99941.97;;;13.69;100.00
40073;BME280;25774;52.256;9.356;2022-10-16T00:18:39;99948.97;;;13.81;100.00
40073;BME280;25774;52.256;9.356;2022-10-16T00:21:07;99937.13;;;13.74;100.00
40073;BME280;25774;52.256;9.356;2022-10-16T00:23:33;99940.88;;;13.71;100.00
40073;BME280;25774;52.256;9.356;2022-10-16T00:26:01;99935.91;;;13.67;100.00
40073;BME280;25774;52.256;9.356;2022-10-16T00:28:27;99949.88;;;13.58;100.00
40073;BME280;25774;52.256;9.356;2022-10-16T00:30:53;99943.28;;;13.39;100.00
40073;BME280;25774;52.256;9.356;2022-10-16T00:33:20;99969.78;;;13.39;100.00
40073;BME280;25774;52.256;9.356;2022-10-16T00:35:45;99974.22;;;13.28;100.00
40073;BME280;25774;52.256;9.356;2022-10-16T00:38:11;99977.81;;;13.51;100.00
40073;BME280;25774;52.256;9.356;2022-10-16T00:40:37;99981.25;;;13.75;100.00
40073;BME280;25774;52.256;9.356;2022-10-16T00:43:02;99973.13;;;13.65;100.00
40073;BME280;25774;52.256;9.356;2022-10-16T00:45:32;99964.84;;;13.35;100.00
40073;BME280;25774;52.256;9.356;2022-10-16T00:47:58;99987.84;;;13.34;100.00
40073;BME280;25774;52.256;9.356;2022-10-16T00:50:30;99997.88;;;13.42;100.00
40073;BME280;25774;52.256;9.356;2022-10-16T00:52:56;99980.63;;;13.36;100.00
40073;BME280;25774;52.256;9.356;2022-10-16T00:55:22;99993.66;;;13.63;100.00
40073;BME280;25774;52.256;9.356;2022-10-16T00:57:48;99975.47;;;13.46;100.00
40073;BME280;25774;52.256;9.356;2022-10-16T01:00:26;99992.25;;;13.46;100.00
40073;BME280;25774;52.256;9.356;2022-10-16T01:03:01;99989.19;;;13.64;100.00
40073;BME280;25774;52.256;9.356;2022-10-16T01:05:34;99981.28;;;13.27;100.00
40073;BME280;25774;52.256;9.356;2022-10-16T01:08:30;99988.34;;;13.39;100.00
40073;BME280;25774;52.256;9.356;2022-10-16T01:11:04;99978.31;;;13.32;100.00
40073;BME280;25774;52.256;9.356;2022-10-16T01:13:41;99987.69;;;13.12;100.00
40073;BME280;25774;52.256;9.356;2022-10-16T01:16:14;99988.03;;;12.94;100.00
40073;BME280;25774;52.256;9.356;2022-10-16T01:18:47;100012.47;;;13.11;100.00
40073;BME280;25774;52.256;9.356;2022-10-16T01:21:44;100032.91;;;13.21;100.00
40073;BME280;25774;52.256;9.356;2022-10-16T01:24:35;100005.63;;;12.95;100.00
40073;BME280;25774;52.256;9.356;2022-10-16T01:29:56;100042.88;;;13.18;100.00
40073;BME280;25774;52.256;9.356;2022-10-16T01:32:37;100030.81;;;13.14;100.00
40073;BME280;25774;52.256;9.356;2022-10-16T01:37:43;100046.69;;;13.14;100.00
40073;BME280;25774;52.256;9.356;2022-10-16T01:40:13;100040.59;;;13.00;100.00
40073;BME280;25774;52.256;9.356;2022-10-16T01:42:46;100060.97;;;13.24;100.00
40073;BME280;25774;52.256;9.356;2022-10-16T01:45:15;100062.28;;;13.31;100.00
40073;BME280;25774;52.256;9.356;2022-10-16T01:47:43;100059.06;;;13.39;100.00
40073;BME280;25774;52.256;9.356;2022-10-16T01:50:09;100069.66;;;13.39;100.00
40073;BME280;25774;52.256;9.356;2022-10-16T01:52:37;100071.53;;;13.49;100.00
40073;BME280;25774;52.256;9.356;2022-10-16T01:55:06;100077.78;;;13.48;100.00
40073;BME280;25774;52.256;9.356;2022-10-16T01:57:36;100053.06;;;12.98;100.00
40073;BME280;25774;52.256;9.356;2022-10-16T02:00:08;100086.66;;;13.11;100.00
40073;BME280;25774;52.256;9.356;2022-10-16T02:02:35;100091.66;;;13.28;100.00
40073;BME280;25774;52.256;9.356;2022-10-16T02:05:06;100085.28;;;13.31;100.00
40073;BME280;25774;52.256;9.356;2022-10-16T02:07:34;100079.88;;;13.07;100.00
40073;BME280;25774;52.256;9.356;2022-10-16T02:10:00;100083.94;;;12.87;100.00
40073;BME280;25774;52.256;9.356;2022-10-16T02:12:28;100104.88;;;13.15;100.00
40073;BME280;25774;52.256;9.356;2022-10-16T02:14:56;100101.63;;;13.12;100.00
40073;BME280;25774;52.256;9.356;2022-10-16T02:17:22;100114.53;;;13.03;100.00
40073;BME280;25774;52.256;9.356;2022-10-16T02:19:49;100117.41;;;13.00;100.00
40073;BME280;25774;52.256;9.356;2022-10-16T02:22:27;100121.41;;;13.19;100.00
40073;BME280;25774;52.256;9.356;2022-10-16T02:27:25;100104.72;;;12.93;100.00
40073;BME280;25774;52.256;9.356;2022-10-16T02:30:01;100110.28;;;13.01;100.00
40073;BME280;25774;52.256;9.356;2022-10-16T02:32:33;100107.03;;;12.85;100.00
40073;BME280;25774;52.256;9.356;2022-10-16T02:35:00;100111.25;;;13.00;100.00
40073;BME280;25774;52.256;9.356;2022-10-16T02:37:27;100100.88;;;12.84;100.00
40073;BME280;25774;52.256;9.356;2022-10-16T02:39:54;100107.88;;;12.72;100.00
40073;BME280;25774;52.256;9.356;2022-10-16T02:42:20;100119.22;;;12.87;100.00
40073;BME280;25774;52.256;9.356;2022-10-16T02:44:45;100128.34;;;12.96;100.00
40073;BME280;25774;52.256;9.356;2022-10-16T02:47:10;100122.81;;;13.12;100.00
40073;BME280;25774;52.256;9.356;2022-10-16T02:49:37;100126.50;;;13.35;100.00
40073;BME280;25774;52.256;9.356;2022-10-16T02:52:03;100122.28;;;13.32;100.00
40073;BME280;25774;52.256;9.356;2022-10-16T02:54:28;100108.03;;;13.20;100.00
40073;BME280;25774;52.256;9.356;2022-10-16T02:56:55;100120.38;;;13.21;100.00
40073;BME280;25774;52.256;9.356;2022-10-16T02:59:20;100125.03;;;13.31;100.00
40073;BME280;25774;52.256;9.356;2022-10-16T03:01:45;100114.34;;;12.94;100.00
40073;BME280;25774;52.256;9.356;2022-10-16T03:04:12;100120.69;;;12.91;100.00
40073;BME280;25774;52.256;9.356;2022-10-16T03:06:37;100125.56;;;12.72;100.00
40073;BME280;25774;52.256;9.356;2022-10-16T03:09:03;100120.44;;;12.43;100.00
40073;BME280;25774;52.256;9.356;2022-10-16T03:11:29;100124.53;;;12.22;100.00
40073;BME280;25774;52.256;9.356;2022-10-16T03:13:55;100132.13;;;12.14;100.00
40073;BME280;25774;52.256;9.356;2022-10-16T03:16:20;100140.75;;;11.76;100.00
40073;BME280;25774;52.256;9.356;2022-10-16T03:18:49;100170.75;;;11.89;100.00
40073;BME280;25774;52.256;9.356;2022-10-16T03:21:15;100185.50;;;12.20;100.00
40073;BME280;25774;52.256;9.356;2022-10-16T03:23:40;100197.19;;;12.43;100.00
40073;BME280;25774;52.256;9.356;2022-10-16T03:26:05;100202.63;;;12.42;100.00
40073;BME280;25774;52.256;9.356;2022-10-16T03:28:31;100218.06;;;12.88;100.00
40073;BME280;25774;52.256;9.356;2022-10-16T03:30:56;100219.75;;;13.01;100.00
40073;BME280;25774;52.256;9.356;2022-10-16T03:33:21;100210.13;;;13.00;100.00
40073;BME280;25774;52.256;9.356;2022-10-16T03:35:54;100204.50;;;12.92;100.00
40073;BME280;25774;52.256;9.356;2022-10-16T03:38:20;100206.72;;;13.11;100.00
40073;BME280;25774;52.256;9.356;2022-10-16T03:40:46;100173.34;;;12.83;100.00
40073;BME280;25774;52.256;9.356;2022-10-16T03:43:11;100199.31;;;12.91;100.00
40073;BME280;25774;52.256;9.356;2022-10-16T03:45:37;100186.88;;;12.66;100.00
40073;BME280;25774;52.256;9.356;2022-10-16T03:48:03;100201.19;;;12.89;100.00
40073;BME280;25774;52.256;9.356;2022-10-16T03:50:29;100188.81;;;12.76;100.00
40073;BME280;25774;52.256;9.356;2022-10-16T03:52:55;100187.84;;;12.77;100.00
40073;BME280;25774;52.256;9.356;2022-10-16T03:55:21;100191.56;;;12.75;100.00
40073;BME280;25774;52.256;9.356;2022-10-16T03:57:46;100166.44;;;12.68;100.00
40073;BME280;25774;52.256;9.356;2022-10-16T04:00:12;100155.72;;;12.56;100.00
40073;BME280;25774;52.256;9.356;2022-10-16T04:02:38;100165.19;;;12.61;100.00
40073;BME280;25774;52.256;9.356;2022-10-16T04:05:03;100179.97;;;12.63;100.00
40073;BME280;25774;52.256;9.356;2022-10-16T04:07:29;100179.97;;;12.10;100.00
40073;BME280;25774;52.256;9.356;2022-10-16T04:09:55;100215.84;;;12.42;100.00
40073;BME280;25774;52.256;9.356;2022-10-16T04:12:22;100220.63;;;12.49;100.00
40073;BME280;25774;52.256;9.356;2022-10-16T04:14:47;100226.78;;;12.63;100.00
40073;BME280;25774;52.256;9.356;2022-10-16T04:17:13;100229.19;;;12.80;100.00
40073;BME280;25774;52.256;9.356;2022-10-16T04:19:38;100217.94;;;12.76;100.00
40073;BME280;25774;52.256;9.356;2022-10-16T04:22:03;100215.06;;;12.67;100.00
40073;BME280;25774;52.256;9.356;2022-10-16T04:24:29;100218.25;;;12.72;100.00
40073;BME280;25774;52.256;9.356;2022-10-16T04:26:54;100231.19;;;12.76;100.00
40073;BME280;25774;52.256;9.356;2022-10-16T04:29:19;100228.66;;;12.88;100.00
40073;BME280;25774;52.256;9.356;2022-10-16T04:31:45;100205.91;;;12.45;100.00
40073;BME280;25774;52.256;9.356;2022-10-16T04:34:10;100192.44;;;12.36;100.00
40073;BME280;25774;52.256;9.356;2022-10-16T04:36:35;100214.00;;;12.69;100.00
40073;BME280;25774;52.256;9.356;2022-10-16T04:39:01;100207.44;;;12.75;100.00
40073;BME280;25774;52.256;9.356;2022-10-16T04:41:26;100198.84;;;12.59;100.00
40073;BME280;25774;52.256;9.356;2022-10-16T04:43:52;100217.41;;;12.71;100.00
40073;BME280;25774;52.256;9.356;2022-10-16T04:46:17;100221.22;;;12.67;100.00
40073;BME280;25774;52.256;9.356;2022-10-16T04:48:43;100221.72;;;12.72;100.00
40073;BME280;25774;52.256;9.356;2022-10-16T04:51:09;100226.41;;;12.82;100.00
40073;BME280;25774;52.256;9.356;2022-10-16T04:53:34;100226.31;;;12.83;100.00
40073;BME280;25774;52.256;9.356;2022-10-16T04:56:01;100234.75;;;12.75;100.00
40073;BME280;25774;52.256;9.356;2022-10-16T04:58:26;100233.09;;;12.87;100.00
40073;BME280;25774;52.256;9.356;2022-10-16T05:00:51;100249.56;;;13.05;100.00
40073;BME280;25774;52.256;9.356;2022-10-16T05:03:17;100232.47;;;12.84;100.00
40073;BME280;25774;52.256;9.356;2022-10-16T05:05:43;100242.31;;;12.82;100.00
40073;BME280;25774;52.256;9.356;2022-10-16T05:08:09;100222.13;;;12.66;100.00
40073;BME280;25774;52.256;9.356;2022-10-16T05:10:35;100205.94;;;12.58;100.00
40073;BME280;25774;52.256;9.356;2022-10-16T05:13:00;100213.16;;;12.69;100.00
40073;BME280;25774;52.256;9.356;2022-10-16T05:15:25;100220.03;;;12.71;100.00
40073;BME280;25774;52.256;9.356;2022-10-16T05:17:55;100219.28;;;12.69;100.00
40073;BME280;25774;52.256;9.356;2022-10-16T05:20:21;100214.59;;;12.60;100.00
40073;BME280;25774;52.256;9.356;2022-10-16T05:22:47;100239.97;;;12.77;100.00
40073;BME280;25774;52.256;9.356;2022-10-16T05:25:12;100228.59;;;12.62;100.00
40073;BME280;25774;52.256;9.356;2022-10-16T05:27:38;100225.88;;;12.64;100.00
40073;BME280;25774;52.256;9.356;2022-10-16T05:30:03;100230.28;;;12.63;100.00
40073;BME280;25774;52.256;9.356;2022-10-16T05:32:30;100233.22;;;12.46;100.00
40073;BME280;25774;52.256;9.356;2022-10-16T05:34:55;100238.91;;;12.40;100.00
40073;BME280;25774;52.256;9.356;2022-10-16T05:37:20;100245.19;;;12.51;100.00
40073;BME280;25774;52.256;9.356;2022-10-16T05:39:46;100233.25;;;12.59;100.00
40073;BME280;25774;52.256;9.356;2022-10-16T05:42:11;100213.94;;;12.44;100.00
40073;BME280;25774;52.256;9.356;2022-10-16T05:44:37;100230.16;;;12.52;100.00
40073;BME280;25774;52.256;9.356;2022-10-16T05:47:02;100222.19;;;12.39;100.00
40073;BME280;25774;52.256;9.356;2022-10-16T05:49:27;100214.72;;;12.31;100.00
40073;BME280;25774;52.256;9.356;2022-10-16T05:51:53;100222.13;;;12.26;100.00
40073;BME280;25774;52.256;9.356;2022-10-16T05:54:18;100224.47;;;12.31;100.00
40073;BME280;25774;52.256;9.356;2022-10-16T05:56:44;100206.41;;;12.10;100.00
40073;BME280;25774;52.256;9.356;2022-10-16T05:59:09;100209.34;;;12.06;100.00
40073;BME280;25774;52.256;9.356;2022-10-16T06:01:34;100219.25;;;12.02;100.00
40073;BME280;25774;52.256;9.356;2022-10-16T06:04:01;100218.03;;;12.08;100.00
40073;BME280;25774;52.256;9.356;2022-10-16T06:06:28;100215.88;;;12.00;100.00
40073;BME280;25774;52.256;9.356;2022-10-16T06:08:55;100216.28;;;11.94;100.00
40073;BME280;25774;52.256;9.356;2022-10-16T06:11:26;100239.75;;;12.13;100.00
40073;BME280;25774;52.256;9.356;2022-10-16T06:13:54;100265.00;;;12.31;100.00
40073;BME280;25774;52.256;9.356;2022-10-16T06:16:21;100274.50;;;12.48;100.00
40073;BME280;25774;52.256;9.356;2022-10-16T06:18:47;100284.50;;;12.57;100.00
40073;BME280;25774;52.256;9.356;2022-10-16T06:21:23;100297.09;;;12.54;100.00
40073;BME280;25774;52.256;9.356;2022-10-16T06:23:58;100316.13;;;12.73;100.00
40073;BME280;25774;52.256;9.356;2022-10-16T06:26:26;100296.28;;;12.66;100.00
40073;BME280;25774;52.256;9.356;2022-10-16T06:28:53;100301.72;;;12.77;100.00
40073;BME280;25774;52.256;9.356;2022-10-16T06:31:19;100299.47;;;12.71;100.00
40073;BME280;25774;52.256;9.356;2022-10-16T06:33:45;100305.59;;;12.99;100.00
40073;BME280;25774;52.256;9.356;2022-10-16T06:36:14;100304.72;;;12.98;100.00
40073;BME280;25774;52.256;9.356;2022-10-16T06:38:41;100287.75;;;12.88;100.00
40073;BME280;25774;52.256;9.356;2022-10-16T06:41:07;100295.09;;;12.97;100.00
40073;BME280;25774;52.256;9.356;2022-10-16T06:43:34;100317.28;;;13.22;100.00
40073;BME280;25774;52.256;9.356;2022-10-16T06:46:01;100324.66;;;13.31;100.00
40073;BME280;25774;52.256;9.356;2022-10-16T06:48:27;100336.53;;;13.38;100.00
40073;BME280;25774;52.256;9.356;2022-10-16T06:53:21;100338.78;;;13.83;100.00
40073;BME280;25774;52.256;9.356;2022-10-16T06:55:46;100341.09;;;13.87;100.00
40073;BME280;25774;52.256;9.356;2022-10-16T06:58:11;100352.88;;;13.96;100.00
40073;BME280;25774;52.256;9.356;2022-10-16T07:00:37;100338.63;;;14.10;100.00
40073;BME280;25774;52.256;9.356;2022-10-16T07:03:02;100344.78;;;14.23;100.00
40073;BME280;25774;52.256;9.356;2022-10-16T07:05:27;100339.34;;;14.25;100.00
40073;BME280;25774;52.256;9.356;2022-10-16T07:07:53;100349.72;;;14.40;100.00
40073;BME280;25774;52.256;9.356;2022-10-16T07:10:18;100350.78;;;14.51;100.00
40073;BME280;25774;52.256;9.356;2022-10-16T07:12:43;100338.59;;;14.72;100.00
40073;BME280;25774;52.256;9.356;2022-10-16T07:15:10;100322.34;;;14.64;100.00
40073;BME280;25774;52.256;9.356;2022-10-16T07:17:35;100320.75;;;14.74;100.00
40073;BME280;25774;52.256;9.356;2022-10-16T07:20:01;100316.75;;;15.04;100.00
40073;BME280;25774;52.256;9.356;2022-10-16T07:22:28;100306.97;;;15.04;100.00
40073;BME280;25774;52.256;9.356;2022-10-16T07:24:53;100301.50;;;15.06;100.00
40073;BME280;25774;52.256;9.356;2022-10-16T07:27:19;100297.03;;;14.95;100.00
40073;BME280;25774;52.256;9.356;2022-10-16T07:29:44;100289.84;;;15.20;100.00
40073;BME280;25774;52.256;9.356;2022-10-16T07:32:09;100291.09;;;15.38;100.00
40073;BME280;25774;52.256;9.356;2022-10-16T07:34:35;100292.69;;;15.52;100.00
40073;BME280;25774;52.256;9.356;2022-10-16T07:37:00;100292.44;;;15.66;100.00
40073;BME280;25774;52.256;9.356;2022-10-16T07:39:26;100296.97;;;15.88;100.00
40073;BME280;25774;52.256;9.356;2022-10-16T07:41:51;100277.50;;;15.88;100.00
40073;BME280;25774;52.256;9.356;2022-10-16T07:44:16;100270.63;;;15.74;100.00
40073;BME280;25774;52.256;9.356;2022-10-16T07:46:42;100263.84;;;15.92;100.00
40073;BME280;25774;52.256;9.356;2022-10-16T07:49:08;100264.88;;;16.01;100.00
40073;BME280;25774;52.256;9.356;2022-10-16T07:51:33;100250.75;;;16.12;100.00
40073;BME280;25774;52.256;9.356;2022-10-16T07:53:59;100254.25;;;16.01;100.00
40073;BME280;25774;52.256;9.356;2022-10-16T07:56:24;100256.28;;;16.20;100.00
40073;BME280;25774;52.256;9.356;2022-10-16T07:58:50;100265.25;;;16.08;100.00
40073;BME280;25774;52.256;9.356;2022-10-16T08:01:17;100269.69;;;16.30;100.00
40073;BME280;25774;52.256;9.356;2022-10-16T08:03:46;100266.75;;;16.44;100.00
40073;BME280;25774;52.256;9.356;2022-10-16T08:06:11;100288.44;;;16.83;100.00
40073;BME280;25774;52.256;9.356;2022-10-16T08:08:37;100292.03;;;16.93;100.00
40073;BME280;25774;52.256;9.356;2022-10-16T08:11:02;100260.38;;;16.24;100.00
40073;BME280;25774;52.256;9.356;2022-10-16T08:13:30;100261.09;;;16.37;100.00
40073;BME280;25774;52.256;9.356;2022-10-16T08:15:55;100272.09;;;16.33;100.00
40073;BME280;25774;52.256;9.356;2022-10-16T08:18:21;100286.16;;;16.35;100.00
40073;BME280;25774;52.256;9.356;2022-10-16T08:20:46;100272.03;;;16.12;100.00
40073;BME280;25774;52.256;9.356;2022-10-16T08:23:12;100275.34;;;16.36;100.00
40073;BME280;25774;52.256;9.356;2022-10-16T08:25:39;100288.16;;;16.42;100.00
40073;BME280;25774;52.256;9.356;2022-10-16T08:28:06;100276.75;;;15.97;100.00
40073;BME280;25774;52.256;9.356;2022-10-16T08:30:33;100294.88;;;16.25;100.00
40073;BME280;25774;52.256;9.356;2022-10-16T08:33:00;100278.25;;;16.33;100.00
40073;BME280;25774;52.256;9.356;2022-10-16T08:35:26;100312.09;;;16.76;100.00
40073;BME280;25774;52.256;9.356;2022-10-16T08:37:51;100284.81;;;16.40;100.00
40073;BME280;25774;52.256;9.356;2022-10-16T08:40:23;100277.53;;;16.42;100.00
40073;BME280;25774;52.256;9.356;2022-10-16T08:48:51;100276.09;;;16.38;100.00
40073;BME280;25774;52.256;9.356;2022-10-16T08:51:22;100306.94;;;16.84;100.00
40073;BME280;25774;52.256;9.356;2022-10-16T08:53:52;100304.88;;;16.88;100.00
40073;BME280;25774;52.256;9.356;2022-10-16T08:56:19;100291.25;;;16.70;100.00
40073;BME280;25774;52.256;9.356;2022-10-16T08:58:46;100317.66;;;17.05;100.00
40073;BME280;25774;52.256;9.356;2022-10-16T09:01:16;100305.16;;;17.06;100.00
40073;BME280;25774;52.256;9.356;2022-10-16T09:06:42;100302.63;;;17.25;100.00
40073;BME280;25774;52.256;9.356;2022-10-16T09:17:42;100288.25;;;16.95;100.00
40073;BME280;25774;52.256;9.356;2022-10-16T09:20:39;100326.44;;;17.38;100.00
40073;BME280;25774;52.256;9.356;2022-10-16T09:23:29;100300.91;;;17.14;100.00
40073;BME280;25774;52.256;9.356;2022-10-16T09:25:56;100300.56;;;17.29;100.00
40073;BME280;25774;52.256;9.356;2022-10-16T09:28:23;100295.75;;;17.23;100.00
40073;BME280;25774;52.256;9.356;2022-10-16T09:30:48;100301.34;;;17.40;100.00
40073;BME280;25774;52.256;9.356;2022-10-16T09:33:16;100288.59;;;17.02;100.00
40073;BME280;25774;52.256;9.356;2022-10-16T09:35:46;100309.00;;;17.55;100.00
40073;BME280;25774;52.256;9.356;2022-10-16T09:40:48;100302.91;;;17.74;100.00
40073;BME280;25774;52.256;9.356;2022-10-16T09:45:56;100283.59;;;17.60;100.00
40073;BME280;25774;52.256;9.356;2022-10-16T09:48:22;100319.81;;;18.05;100.00
40073;BME280;25774;52.256;9.356;2022-10-16T09:51:03;100312.84;;;18.23;100.00
40073;BME280;25774;52.256;9.356;2022-10-16T09:53:43;100292.31;;;18.24;100.00
40073;BME280;25774;52.256;9.356;2022-10-16T09:56:11;100296.00;;;18.32;100.00
40073;BME280;25774;52.256;9.356;2022-10-16T09:58:42;100318.81;;;18.46;100.00
40073;BME280;25774;52.256;9.356;2022-10-16T10:01:13;100287.41;;;18.29;100.00
40073;BME280;25774;52.256;9.356;2022-10-16T10:03:41;100274.72;;;18.21;100.00
40073;BME280;25774;52.256;9.356;2022-10-16T10:06:25;100266.69;;;18.11;100.00
40073;BME280;25774;52.256;9.356;2022-10-16T10:08:57;100256.03;;;18.31;100.00
40073;BME280;25774;52.256;9.356;2022-10-16T10:11:44;100252.94;;;18.16;100.00
40073;BME280;25774;52.256;9.356;2022-10-16T10:14:17;100275.03;;;18.28;100.00
40073;BME280;25774;52.256;9.356;2022-10-16T10:16:43;100240.97;;;18.01;100.00
40073;BME280;25774;52.256;9.356;2022-10-16T10:19:23;100253.94;;;18.25;100.00
40073;BME280;25774;52.256;9.356;2022-10-16T10:21:50;100239.16;;;18.21;100.00
40073;BME280;25774;52.256;9.356;2022-10-16T10:24:18;100272.63;;;18.34;100.00
40073;BME280;25774;52.256;9.356;2022-10-16T10:27:00;100287.59;;;18.56;100.00
40073;BME280;25774;52.256;9.356;2022-10-16T10:29:45;100246.38;;;18.49;100.00
40073;BME280;25774;52.256;9.356;2022-10-16T10:32:18;100258.41;;;18.15;100.00
40073;BME280;25774;52.256;9.356;2022-10-16T10:35:04;100276.25;;;18.04;100.00
40073;BME280;25774;52.256;9.356;2022-10-16T10:45:41;100287.19;;;18.71;100.00
40073;BME280;25774;52.256;9.356;2022-10-16T10:51:13;100298.47;;;19.03;100.00
40073;BME280;25774;52.256;9.356;2022-10-16T10:53:44;100287.03;;;19.11;100.00
40073;BME280;25774;52.256;9.356;2022-10-16T10:59:28;100270.47;;;18.88;100.00
40073;BME280;25774;52.256;9.356;2022-10-16T11:07:32;100259.31;;;19.22;100.00
40073;BME280;25774;52.256;9.356;2022-10-16T11:10:05;100200.13;;;18.78;100.00
40073;BME280;25774;52.256;9.356;2022-10-16T11:12:44;100245.72;;;18.96;100.00
40073;BME280;25774;52.256;9.356;2022-10-16T11:15:19;100223.31;;;18.97;100.00
40073;BME280;25774;52.256;9.356;2022-10-16T11:17:52;100247.78;;;19.12;100.00
40073;BME280;25774;52.256;9.356;2022-10-16T11:20:23;100242.78;;;19.36;100.00
40073;BME280;25774;52.256;9.356;2022-10-16T11:22:54;100170.50;;;19.09;100.00
40073;BME280;25774;52.256;9.356;2022-10-16T11:25:25;100260.50;;;19.57;100.00
40073;BME280;25774;52.256;9.356;2022-10-16T11:28:06;100234.31;;;19.50;100.00
40073;BME280;25774;52.256;9.356;2022-10-16T11:30:43;100205.22;;;19.28;100.00
40073;BME280;25774;52.256;9.356;2022-10-16T11:44:40;100283.88;;;19.55;100.00
40073;BME280;25774;52.256;9.356;2022-10-16T11:47:25;100278.53;;;19.45;100.00
40073;BME280;25774;52.256;9.356;2022-10-16T11:49:59;100250.72;;;19.18;100.00
40073;BME280;25774;52.256;9.356;2022-10-16T11:55:16;100329.75;;;20.16;100.00
40073;BME280;25774;52.256;9.356;2022-10-16T11:57:47;100294.38;;;19.85;100.00
40073;BME280;25774;52.256;9.356;2022-10-16T12:00:23;100299.81;;;19.56;100.00
40073;BME280;25774;52.256;9.356;2022-10-16T12:08:11;100307.53;;;19.69;100.00
40073;BME280;25774;52.256;9.356;2022-10-16T12:10:39;100259.00;;;19.35;100.00
40073;BME280;25774;52.256;9.356;2022-10-16T12:16:24;100260.41;;;19.29;100.00
40073;BME280;25774;52.256;9.356;2022-10-16T12:18:49;100275.84;;;19.55;100.00
40073;BME280;25774;52.256;9.356;2022-10-16T12:21:16;100259.56;;;19.38;100.00
40073;BME280;25774;52.256;9.356;2022-10-16T12:23:55;100204.91;;;18.84;100.00
40073;BME280;25774;52.256;9.356;2022-10-16T12:26:27;100306.16;;;19.45;100.00
40073;BME280;25774;52.256;9.356;2022-10-16T12:28:54;100285.50;;;19.85;100.00
40073;BME280;25774;52.256;9.356;2022-10-16T12:31:20;100263.72;;;19.97;100.00
40073;BME280;25774;52.256;9.356;2022-10-16T12:34:02;100240.22;;;20.37;100.00
40073;BME280;25774;52.256;9.356;2022-10-16T12:36:29;100207.56;;;20.41;100.00
40073;BME280;25774;52.256;9.356;2022-10-16T12:38:55;100053.66;;;19.82;100.00
40073;BME280;25774;52.256;9.356;2022-10-16T12:41:29;100204.91;;;20.41;100.00
40073;BME280;25774;52.256;9.356;2022-10-16T12:43:55;100184.25;;;20.70;100.00
40073;BME280;25774;52.256;9.356;2022-10-16T12:46:35;100205.63;;;20.61;100.00
40073;BME280;25774;52.256;9.356;2022-10-16T12:51:59;100195.78;;;20.34;100.00
40073;BME280;25774;52.256;9.356;2022-10-16T12:54:30;100160.72;;;20.10;100.00
40073;BME280;25774;52.256;9.356;2022-10-16T12:59:59;100254.03;;;20.78;100.00
40073;BME280;25774;52.256;9.356;2022-10-16T13:03:00;100151.31;;;20.24;100.00
40073;BME280;25774;52.256;9.356;2022-10-16T13:11:14;100214.31;;;21.25;94.88
40073;BME280;25774;52.256;9.356;2022-10-16T13:21:49;100070.53;;;20.36;93.33
40073;BME280;25774;52.256;9.356;2022-10-16T13:30:01;100252.47;;;19.57;100.00
40073;BME280;25774;52.256;9.356;2022-10-16T13:32:27;100271.34;;;19.92;100.00
40073;BME280;25774;52.256;9.356;2022-10-16T13:34:53;100283.38;;;19.88;100.00
40073;BME280;25774;52.256;9.356;2022-10-16T13:37:21;100261.03;;;20.25;100.00
40073;BME280;25774;52.256;9.356;2022-10-16T13:39:47;100247.09;;;20.21;100.00
40073;BME280;25774;52.256;9.356;2022-10-16T13:42:25;100309.00;;;19.91;100.00
40073;BME280;25774;52.256;9.356;2022-10-16T13:44:53;100266.41;;;20.43;100.00
40073;BME280;25774;52.256;9.356;2022-10-16T13:47:24;100403.47;;;20.58;100.00
40073;BME280;25774;52.256;9.356;2022-10-16T13:50:05;100339.75;;;20.42;100.00
40073;BME280;25774;52.256;9.356;2022-10-16T13:52:31;100337.19;;;20.50;100.00
40073;BME280;25774;52.256;9.356;2022-10-16T13:54:56;100286.63;;;20.37;100.00
40073;BME280;25774;52.256;9.356;2022-10-16T13:57:24;100338.94;;;20.14;100.00
40073;BME280;25774;52.256;9.356;2022-10-16T13:59:50;100389.53;;;20.27;100.00
40073;BME280;25774;52.256;9.356;2022-10-16T14:05:13;100358.25;;;19.70;100.00
40073;BME280;25774;52.256;9.356;2022-10-16T14:07:39;100336.84;;;19.70;100.00
40073;BME280;25774;52.256;9.356;2022-10-16T14:10:07;100345.34;;;19.17;100.00
40073;BME280;25774;52.256;9.356;2022-10-16T14:12:43;100333.22;;;19.13;100.00
40073;BME280;25774;52.256;9.356;2022-10-16T14:15:16;100403.34;;;19.65;100.00
40073;BME280;25774;52.256;9.356;2022-10-16T14:17:50;100423.34;;;19.71;100.00
40073;BME280;25774;52.256;9.356;2022-10-16T14:20:18;100375.91;;;19.44;100.00
40073;BME280;25774;52.256;9.356;2022-10-16T14:22:44;100409.41;;;19.48;100.00
40073;BME280;25774;52.256;9.356;2022-10-16T14:27:56;100312.41;;;18.97;100.00
40073;BME280;25774;52.256;9.356;2022-10-16T14:30:21;100429.41;;;19.24;100.00
40073;BME280;25774;52.256;9.356;2022-10-16T14:33:05;100472.94;;;19.46;100.00
40073;BME280;25774;52.256;9.356;2022-10-16T14:35:36;100395.03;;;19.29;100.00